logo
Rechercher aéroport 
image banner adimage banner adimage banner ad
image banner ad

42L - Naa Long Beach Port Helistop

Situé à Long Beach, United States

ICAO - 42L, IATA -

Données fournies par Airmate  

Information générale

Coordonnées: N33°45'53" W118°11'58"
Élévation : 15 feet MSL.
Variation magnétique : 14° East
Voir autres Aéroports à California

Données opérationnelles

Special qualification required
Heure actuelle UTC:
Heure actuelle locale:
METAR: KLGB 281337Z 20003KT 1/2SM R30/3000VP6000FT FG VV002 21/19 A2990 RMK AO2 T02060194
TAF: KLGB 281319Z 2813/2912 VRB03KT 1/2SM FG OVC001 FM281430 VRB03KT 2SM BR BKN004 FM281600 VRB03KT 6SM HZ SKC FM281900 18006KT P6SM SKC FM282230 30010KT P6SM SKC FM290500 VRB03KT P6SM SKC FM291000 14004KT 4SM BR VCFG BKN004
Voir NOTAMs / SUP AIP / TFR affectant cet aéroport [VIEW]
Fréquences de communication: [VIEW]

Pistes:

Coordonnées de l'aéroport

Adresse: Long Beach United States

Vue satellite de 42L